Terminal Aerodrome Forecast
Issued by NWS Cleveland, OH

Home | Current Version | Previous Version | Graphics & Text | Print | Product List | Glossary On
Versions: 1 2 3 4 5 6 7 8 9 10 11 12 13 14 15 16 17 18 19 20 21
316
FTUS41 KCLE 160521
TAFERI
TAF
KERI 160521Z 1606/1706 VRB03KT P6SM SCT100 OVC200
     FM160700 18008KT P6SM SCT100 OVC200
     FM162000 12006KT P6SM SCT025 OVC035
     FM170300 14008KT 5SM -RA SCT008 OVC015=

USA.gov is the U.S. government's official web portal to all federal, state and local government web resources and services.